Welcome to Trans World Virtual Airlines!

Welcome TWVA's Newest Pilot:

TWA2313 Bryan Heald

Not a Trans World pilot yet?
Apply Now!




Sign-in with your pilot id or email, or register

Flight TWA836

  • Submitted By: Austin Hill
  • Departure Airport: Dallas/Fort Worth International Airport (KDFW)
  • Arrival Airport: Kansas City International Airport (KMCI)
  • Aircraft: MD-83 (N44266TW)
  • Flight Time: 01.43
  • Date Submitted: 02/21/2018
  • Route: ITBQ, TUL, DOSOA, MCI, KMCI
  • Status: Accepted
Flight Details
Gross Revenue:
(123 load / $ 195.00 per unit
$ 23, 985.00
Fuel Cost:
(12508 fuel used @ 0.8 / unit)
$ 10, 006.40

Additional Log Information:

View Log

FS[18:38] Aircraft Title - MD_83 Paint4
FS[18:38] Aircraft Model - MD83
FS[18:38] Flight Number TWA836
FS[18:38] Departure KDFW
FS[18:38] Destination KMCI
FS[18:38] Boarding
FS[18:52] Pushing Back
FS[18:56] Taxiing to Runway
FS[19:04] Taking Off
FS[19:04] Taking Off
FS[19:04] 178kts
FS[19:04] pitch angle 8 degrees
FS[19:04] 24038 (lbs) of fuel onboard
FS[19:04] Climbing
FS[19:21] TOC Reached
FS[19:21] Cruise 33000
FS[19:43] TOD Reached
FS[19:43] Descending
FS[19:56] On Approach
FS[20:06] Landing Rate -129fpm
FS[20:06] 14076 (lbs) of fuel onboard
FS[20:06] pitch angle 6 degrees
FS[20:06] Taxiing to Gate
FS[20:13] Arrived
FS[20:21] Max Sim Rate: 4x
FS[20:21] kACARS_Free Version 1.0.1.1

Comments

Commenter Comment
Austin Hill KDFW 211841Z 32010KT 2SM +RA VCTS BKN012 M01/M00 A3026 // KMCI 211945Z 04012KT P6SM BKN015 M03/M06 A3051

Route Map